Time;durP1;ratioP1;P1;durP2;ratioP2;P2;SDS_P1;SDS_P2;PMS_P1;PMS_P2;Temp;Humidity;BMP_temperature;BMP_pressure;BME280_temperature;BME280_humidity;BME280_pressure;Samples;Min_cycle;Max_cycle;Signal;HPM_P1;HPM_P2
2022/05/22 00:01:15;;;;;;;1.92;1.13;;;16.20;72.60;;;;;;5019842;28;20037;-80
2022/05/22 00:03:41;;;;;;;2.33;1.15;;;16.20;72.40;;;;;;5019383;28;20220;-81
2022/05/22 00:06:08;;;;;;;1.98;1.35;;;16.30;72.40;;;;;;5003752;28;20038;-81
2022/05/22 00:08:33;;;;;;;1.95;1.23;;;16.30;72.10;;;;;;5021358;28;20026;-80
2022/05/22 00:10:59;;;;;;;3.13;1.23;;;16.30;71.90;;;;;;5019707;28;20394;-81
2022/05/22 00:13:34;;;;;;;1.40;1.30;;;16.40;71.80;;;;;;5020695;28;20391;-80
2022/05/22 00:18:44;;;;;;;1.63;1.40;;;16.30;71.80;;;;;;5019649;28;20025;-81
2022/05/22 00:21:10;;;;;;;1.15;1.02;;;16.30;71.90;;;;;;5018785;28;20034;-81
2022/05/22 00:23:36;;;;;;;1.52;1.20;;;16.30;72.00;;;;;;5021054;28;20032;-80
2022/05/22 00:26:01;;;;;;;0.88;0.75;;;16.30;72.10;;;;;;5025351;28;20022;-80
2022/05/22 00:28:27;;;;;;;0.77;0.77;;;16.30;72.30;;;;;;5030794;28;20041;-80
2022/05/22 00:30:53;;;;;;;1.23;1.08;;;16.30;72.40;;;;;;5030303;28;20021;-82
2022/05/22 00:33:18;;;;;;;1.77;1.33;;;16.30;72.60;;;;;;5029986;28;20029;-81
2022/05/22 00:35:44;;;;;;;3.63;1.67;;;16.20;72.60;;;;;;5028451;28;20026;-81
2022/05/22 00:38:10;;;;;;;2.63;1.20;;;16.20;72.50;;;;;;5025933;28;20026;-82
2022/05/22 00:40:35;;;;;;;2.17;1.65;;;16.20;72.60;;;;;;5004584;28;20018;-81
2022/05/22 00:43:01;;;;;;;2.55;1.27;;;16.10;72.70;;;;;;5019735;28;20093;-81
2022/05/22 00:45:28;;;;;;;3.30;1.40;;;16.10;73.40;;;;;;5018972;28;20045;-81
2022/05/22 00:47:54;;;;;;;2.63;1.60;;;16.00;73.20;;;;;;5019480;28;20049;-82
2022/05/22 00:50:22;;;;;;;3.30;1.60;;;16.00;73.40;;;;;;5002329;28;20026;-81
2022/05/22 00:52:53;;;;;;;3.42;1.50;;;15.90;73.80;;;;;;5021509;28;20478;-79
2022/05/22 00:55:26;;;;;;;1.65;1.55;;;15.80;74.20;;;;;;5018563;28;20072;-82
2022/05/22 00:57:59;;;;;;;2.13;1.63;;;15.80;74.70;;;;;;5000916;28;20053;-82
2022/05/22 01:00:31;;;;;;;2.25;1.30;;;15.70;75.10;;;;;;5006087;28;20372;-81
2022/05/22 01:05:45;;;;;;;2.40;1.60;;;15.60;75.50;;;;;;5019097;28;20118;-80
2022/05/22 01:08:11;;;;;;;1.45;1.20;;;15.60;76.00;;;;;;5021211;28;20006;-82
2022/05/22 01:10:53;;;;;;;2.90;1.83;;;15.50;76.20;;;;;;5019307;28;20034;-81
2022/05/22 01:13:24;;;;;;;1.65;1.25;;;15.50;76.50;;;;;;5018408;28;20029;-82
2022/05/22 01:15:50;;;;;;;3.53;1.60;;;15.60;76.90;;;;;;5018396;28;20479;-81
2022/05/22 01:18:16;;;;;;;1.52;1.35;;;15.60;76.70;;;;;;5019558;28;20140;-81
2022/05/22 01:20:48;;;;;;;1.65;1.30;;;15.60;76.80;;;;;;5019080;28;20021;-82
2022/05/22 01:23:14;;;;;;;2.53;1.70;;;15.60;76.80;;;;;;5026893;28;20049;-81
2022/05/22 01:25:40;;;;;;;1.50;1.27;;;15.60;77.20;;;;;;5020963;28;20047;-82
2022/05/22 01:28:08;;;;;;;1.52;1.42;;;15.60;77.50;;;;;;5018889;28;20029;-81
2022/05/22 01:30:33;;;;;;;5.57;1.80;;;15.50;77.70;;;;;;5018786;28;20029;-81
2022/05/22 01:32:59;;;;;;;1.98;1.83;;;15.50;77.90;;;;;;5000859;28;20076;-81
2022/05/22 01:35:28;;;;;;;1.52;1.35;;;15.40;78.10;;;;;;5018312;28;20029;-79
2022/05/22 01:37:56;;;;;;;2.45;1.60;;;15.40;78.40;;;;;;5017779;28;20032;-81
2022/05/22 01:40:22;;;;;;;3.05;1.40;;;15.40;78.70;;;;;;5001010;28;20483;-81
2022/05/22 01:42:49;;;;;;;2.45;1.60;;;15.40;78.90;;;;;;5017773;28;20058;-80
2022/05/22 01:45:21;;;;;;;1.60;1.35;;;15.40;79.50;;;;;;5000370;28;20038;-82
2022/05/22 01:47:47;;;;;;;;;;;15.30;79.70;;;;;;5018085;28;20033;-81
2022/05/22 01:50:14;;;;;;;1.88;1.38;;;15.30;79.90;;;;;;5017981;28;19963;-82
2022/05/22 01:52:40;;;;;;;2.70;1.50;;;15.20;80.00;;;;;;5018058;28;20061;-80
2022/05/22 01:55:08;;;;;;;3.47;1.85;;;15.20;80.10;;;;;;5001687;28;20018;-81
2022/05/22 01:57:34;;;;;;;1.55;1.45;;;15.10;80.40;;;;;;5001169;28;20045;-81
2022/05/22 01:59:59;;;;;;;4.55;1.65;;;15.10;80.70;;;;;;5020298;28;20014;-82
2022/05/22 02:02:25;;;;;;;1.92;1.70;;;15.00;80.80;;;;;;5017846;28;20044;-81
2022/05/22 02:04:51;;;;;;;2.53;1.77;;;15.00;81.00;;;;;;4999455;28;20037;-82
2022/05/22 02:10:01;;;;;;;1.83;1.27;;;14.90;81.40;;;;;;5017796;28;20040;-81
2022/05/22 02:12:27;;;;;;;1.52;1.42;;;14.90;81.80;;;;;;5016598;28;20033;-82
2022/05/22 02:14:53;;;;;;;3.85;1.80;;;14.90;82.10;;;;;;5016371;28;20022;-81
2022/05/22 02:17:19;;;;;;;1.33;1.23;;;14.80;82.10;;;;;;5016724;28;20018;-81
2022/05/22 02:19:45;;;;;;;1.30;1.15;;;14.80;82.30;;;;;;5015421;28;20026;-81
2022/05/22 02:22:10;;;;;;;1.70;1.60;;;14.80;82.30;;;;;;5017271;28;20045;-81
2022/05/22 02:24:36;;;;;;;2.17;1.35;;;14.80;82.30;;;;;;5000116;28;20478;-81
2022/05/22 02:27:06;;;;;;;1.67;1.10;;;14.80;82.30;;;;;;5017186;28;20479;-81
2022/05/22 02:29:36;;;;;;;2.45;1.33;;;14.70;82.40;;;;;;5017107;28;20025;-80
2022/05/22 02:32:02;;;;;;;1.98;1.70;;;14.70;82.80;;;;;;5008106;28;20080;-81
2022/05/22 02:34:28;;;;;;;1.67;1.15;;;14.70;83.10;;;;;;5011259;28;20041;-81
2022/05/22 02:36:54;;;;;;;1.10;1.08;;;14.70;83.20;;;;;;5017432;28;20487;-80
2022/05/22 02:39:19;;;;;;;1.83;1.40;;;14.70;82.90;;;;;;5018525;28;20026;-80
2022/05/22 02:41:45;;;;;;;1.35;1.23;;;14.70;83.00;;;;;;5016204;28;20029;-82
2022/05/22 02:44:11;;;;;;;1.63;1.08;;;14.70;83.10;;;;;;5018920;28;20029;-81
2022/05/22 02:46:37;;;;;;;1.10;1.00;;;14.70;83.40;;;;;;5022804;28;20041;-80
2022/05/22 02:49:03;;;;;;;1.45;1.20;;;14.70;83.60;;;;;;5020609;28;20037;-80
2022/05/22 02:51:29;;;;;;;1.85;1.35;;;14.70;84.00;;;;;;5020137;28;20109;-80
2022/05/22 02:53:54;;;;;;;1.38;1.27;;;14.60;84.30;;;;;;5036770;28;20546;-80
2022/05/22 02:56:24;;;;;;;1.55;1.38;;;14.60;84.50;;;;;;5039584;28;20037;-82
2022/05/22 02:58:50;;;;;;;0.77;0.77;;;14.60;84.80;;;;;;5026238;28;20018;-82
2022/05/22 03:01:23;;;;;;;1.10;1.00;;;14.60;85.10;;;;;;5011396;28;20025;-82
2022/05/22 03:03:50;;;;;;;2.03;1.02;;;14.50;85.10;;;;;;5022612;28;20463;-81
2022/05/22 03:09:00;;;;;;;1.58;1.10;;;14.50;84.70;;;;;;5024694;28;20095;-81
2022/05/22 03:11:25;;;;;;;1.73;1.23;;;14.40;85.00;;;;;;5024531;28;20449;-81
2022/05/22 03:13:51;;;;;;;0.90;0.90;;;14.50;85.70;;;;;;5021569;28;20022;-82
2022/05/22 03:16:17;;;;;;;1.92;1.13;;;14.50;85.00;;;;;;5021828;28;20026;-82
2022/05/22 03:18:43;;;;;;;1.77;1.15;;;14.50;85.30;;;;;;5019538;28;20654;-78
2022/05/22 03:21:10;;;;;;;1.58;1.48;;;14.50;85.40;;;;;;5025506;28;20044;-79
2022/05/22 03:23:37;;;;;;;2.28;1.45;;;14.50;84.90;;;;;;5029965;28;20033;-80
2022/05/22 03:26:03;;;;;;;2.67;0.93;;;14.50;84.90;;;;;;5028849;28;20037;-80
2022/05/22 03:28:29;;;;;;;1.30;1.20;;;14.50;85.00;;;;;;5028525;28;20045;-80
2022/05/22 03:30:54;;;;;;;2.45;1.85;;;14.50;85.10;;;;;;5020927;28;20029;-81
2022/05/22 03:33:21;;;;;;;3.20;1.63;;;14.50;84.80;;;;;;5027497;28;20046;-79
2022/05/22 03:35:47;;;;;;;1.85;1.58;;;14.40;85.20;;;;;;5024677;28;20042;-80
2022/05/22 03:38:12;;;;;;;2.17;1.33;;;14.40;84.80;;;;;;5020619;28;20026;-78
2022/05/22 03:40:42;;;;;;;1.48;1.38;;;14.40;85.10;;;;;;5022296;28;20026;-80
2022/05/22 03:43:08;;;;;;;1.40;1.30;;;14.30;85.20;;;;;;5021161;28;20033;-80
2022/05/22 03:45:33;;;;;;;1.58;0.90;;;14.30;85.20;;;;;;5021037;28;20042;-79
2022/05/22 03:47:59;;;;;;;1.33;1.20;;;14.40;85.40;;;;;;5020711;28;20060;-79
2022/05/22 03:50:25;;;;;;;1.35;1.13;;;14.40;85.50;;;;;;5021885;28;20034;-79
2022/05/22 03:52:51;;;;;;;1.05;1.00;;;14.40;85.60;;;;;;5022095;28;20026;-79
2022/05/22 03:55:17;;;;;;;1.33;0.95;;;14.40;85.40;;;;;;5027683;28;20061;-79
2022/05/22 03:57:47;;;;;;;1.58;1.00;;;14.50;85.30;;;;;;5029755;28;20120;-79
2022/05/22 04:00:15;;;;;;;1.70;1.27;;;14.50;85.20;;;;;;5027605;28;20045;-80
2022/05/22 04:02:41;;;;;;;5.82;1.55;;;14.50;84.90;;;;;;5014243;28;20025;-79
2022/05/22 04:05:08;;;;;;;1.35;1.25;;;14.50;84.40;;;;;;5020239;28;20053;-79
2022/05/22 04:07:45;;;;;;;1.40;1.30;;;14.60;84.30;;;;;;5019777;28;20037;-79
2022/05/22 04:10:13;;;;;;;2.95;1.08;;;14.60;84.20;;;;;;5003774;28;20371;-80
2022/05/22 04:12:42;;;;;;;1.42;1.10;;;14.60;84.10;;;;;;5019445;28;20029;-80
2022/05/22 04:15:10;;;;;;;1.30;1.20;;;14.70;83.80;;;;;;5009324;28;20022;-80
2022/05/22 04:17:36;;;;;;;1.73;1.40;;;14.80;83.50;;;;;;5023271;28;20022;-79
2022/05/22 04:20:02;;;;;;;2.22;1.08;;;14.90;83.20;;;;;;5008526;28;20100;-79
2022/05/22 04:22:28;;;;;;;2.67;1.63;;;14.90;83.00;;;;;;5028784;28;20026;-79
2022/05/22 04:25:12;;;;;;;1.15;1.05;;;15.00;82.70;;;;;;5026476;28;20106;-79
2022/05/22 04:27:42;;;;;;;2.70;1.25;;;15.10;82.00;;;;;;5023177;28;20030;-79
2022/05/22 04:30:18;;;;;;;1.05;1.05;;;15.30;81.40;;;;;;5025322;28;20030;-80
2022/05/22 04:32:53;;;;;;;1.52;1.30;;;15.30;80.70;;;;;;5021379;28;20030;-79
2022/05/22 04:35:20;;;;;;;1.45;1.30;;;15.30;79.90;;;;;;5024122;28;20053;-80
2022/05/22 04:37:46;;;;;;;1.50;0.93;;;15.40;79.90;;;;;;5021087;28;20026;-79
2022/05/22 04:40:13;;;;;;;2.35;1.25;;;15.40;79.50;;;;;;5021173;28;20107;-80
2022/05/22 04:42:39;;;;;;;1.20;1.10;;;15.40;80.20;;;;;;5000892;28;20033;-78
2022/05/22 04:45:07;;;;;;;1.00;0.85;;;15.40;79.60;;;;;;5018588;28;20115;-81
2022/05/22 04:47:37;;;;;;;1.23;1.13;;;15.50;79.60;;;;;;5018802;28;20041;-80
2022/05/22 04:50:03;;;;;;;1.55;1.02;;;15.60;79.50;;;;;;5018488;28;20038;-78
2022/05/22 04:52:29;;;;;;;1.80;1.45;;;15.70;78.60;;;;;;5002837;28;20093;-78
2022/05/22 04:54:55;;;;;;;1.20;1.10;;;15.80;78.10;;;;;;5038193;28;20034;-80
2022/05/22 04:57:21;;;;;;;2.35;1.23;;;15.80;77.70;;;;;;5020650;28;20036;-79
2022/05/22 04:59:46;;;;;;;1.70;1.52;;;16.00;77.30;;;;;;5019252;28;20477;-80
2022/05/22 05:02:12;;;;;;;1.70;1.10;;;16.10;76.60;;;;;;5019923;28;20021;-81
2022/05/22 05:04:37;;;;;;;1.10;1.10;;;16.20;75.90;;;;;;5019926;28;20026;-81
2022/05/22 05:07:09;;;;;;;1.25;1.10;;;16.40;75.30;;;;;;5020512;28;20021;-81
2022/05/22 05:09:35;;;;;;;1.05;0.95;;;16.70;74.80;;;;;;5019467;28;20022;-80
2022/05/22 05:12:03;;;;;;;1.98;1.35;;;18.80;73.50;;;;;;5020648;28;20022;-80
2022/05/22 05:14:29;;;;;;;0.95;0.95;;;22.40;63.90;;;;;;5018989;28;20022;-79
2022/05/22 05:16:55;;;;;;;2.40;1.15;;;25.10;55.30;;;;;;5000743;28;20025;-79
2022/05/22 05:19:20;;;;;;;1.15;0.90;;;26.00;52.10;;;;;;5018831;28;20141;-79
2022/05/22 05:21:46;;;;;;;1.10;1.00;;;26.90;49.20;;;;;;5020727;28;20030;-80
2022/05/22 05:24:12;;;;;;;0.80;0.80;;;27.50;47.30;;;;;;5003210;28;20119;-80
2022/05/22 05:26:37;;;;;;;0.90;0.90;;;26.80;45.80;;;;;;5022838;28;20096;-79
2022/05/22 05:29:03;;;;;;;1.40;0.80;;;25.20;47.00;;;;;;5028462;28;20037;-80
2022/05/22 05:31:29;;;;;;;0.80;0.80;;;24.50;49.00;;;;;;5027915;28;20057;-79
2022/05/22 05:33:54;;;;;;;0.68;0.60;;;24.20;50.20;;;;;;5027852;28;20053;-79
2022/05/22 05:36:20;;;;;;;0.80;0.80;;;25.90;48.70;;;;;;5021422;28;20076;-80
2022/05/22 05:38:46;;;;;;;0.55;0.55;;;27.70;45.80;;;;;;5021331;28;20036;-81
2022/05/22 05:41:14;;;;;;;0.95;0.82;;;29.60;43.40;;;;;;5022001;28;20026;-80
2022/05/22 05:43:40;;;;;;;0.80;0.80;;;31.00;40.70;;;;;;5019545;28;20029;-80
2022/05/22 05:46:10;;;;;;;0.73;0.68;;;32.30;39.20;;;;;;5019136;28;20034;-81
2022/05/22 05:48:36;;;;;;;0.85;0.85;;;32.60;38.00;;;;;;5019963;28;20026;-80
2022/05/22 05:51:01;;;;;;;0.80;0.80;;;31.90;36.80;;;;;;5020449;28;20037;-80
2022/05/22 05:53:28;;;;;;;1.55;1.00;;;32.20;36.70;;;;;;5019652;28;20014;-81
2022/05/22 05:56:05;;;;;;;1.02;1.00;;;32.70;36.30;;;;;;5003128;28;20033;-80
2022/05/22 05:58:32;;;;;;;0.80;0.80;;;33.40;35.70;;;;;;5020916;28;20037;-81
2022/05/22 06:00:58;;;;;;;0.75;0.75;;;33.80;34.90;;;;;;5020188;28;20109;-80
2022/05/22 06:03:23;;;;;;;1.05;0.88;;;34.40;34.60;;;;;;5005190;28;20091;-81
2022/05/22 06:05:49;;;;;;;0.70;0.70;;;34.90;34.10;;;;;;5021223;28;20025;-80
2022/05/22 06:08:15;;;;;;;0.80;0.80;;;34.40;33.60;;;;;;5002928;28;20025;-81
2022/05/22 06:10:41;;;;;;;0.95;0.95;;;34.40;33.90;;;;;;5002992;28;20033;-79
2022/05/22 06:13:09;;;;;;;3.03;1.45;;;34.60;33.60;;;;;;5018445;28;20057;-80
2022/05/22 06:15:35;;;;;;;1.80;1.00;;;34.00;32.90;;;;;;5003780;28;20030;-80
2022/05/22 06:18:01;;;;;;;1.33;0.90;;;33.40;34.00;;;;;;5020255;28;20022;-80
2022/05/22 06:20:26;;;;;;;2.40;1.00;;;33.90;34.00;;;;;;5020266;28;20098;-81
2022/05/22 06:22:52;;;;;;;1.15;1.00;;;34.50;33.60;;;;;;5002404;28;20026;-80
2022/05/22 06:25:18;;;;;;;1.17;0.93;;;34.50;32.40;;;;;;5020173;28;20034;-81
2022/05/22 06:27:44;;;;;;;0.93;0.77;;;34.00;32.70;;;;;;5021203;28;20341;-81
2022/05/22 06:30:13;;;;;;;0.82;0.82;;;34.60;32.70;;;;;;5006055;28;20032;-80
2022/05/22 06:32:41;;;;;;;1.85;1.42;;;35.20;32.30;;;;;;5017352;28;20022;-81
2022/05/22 06:35:09;;;;;;;0.98;0.90;;;35.50;32.30;;;;;;5017651;28;20030;-80
2022/05/22 06:37:36;;;;;;;0.90;0.90;;;35.50;31.70;;;;;;5018975;28;20026;-80
2022/05/22 06:40:03;;;;;;;1.75;0.90;;;35.50;31.90;;;;;;5017950;28;20129;-80
2022/05/22 06:42:32;;;;;;;0.95;0.95;;;35.40;31.60;;;;;;5000516;28;20033;-80
2022/05/22 06:45:25;;;;;;;1.17;0.90;;;35.50;31.90;;;;;;5003945;28;20030;-80
2022/05/22 06:47:51;;;;;;;1.05;1.00;;;35.60;31.50;;;;;;5012115;28;20125;-81
2022/05/22 06:50:21;;;;;;;1.52;1.40;;;35.40;31.10;;;;;;5018114;28;20088;-80
2022/05/22 06:52:47;;;;;;;1.75;1.20;;;33.40;32.00;;;;;;5032183;28;20026;-80
2022/05/22 06:55:13;;;;;;;3.17;1.20;;;32.00;33.70;;;;;;5026035;28;20034;-82
2022/05/22 06:57:40;;;;;;;2.50;1.20;;;31.10;34.10;;;;;;5021783;28;20033;-79
2022/05/22 07:00:10;;;;;;;1.55;1.10;;;30.50;35.40;;;;;;5010888;28;20026;-79
2022/05/22 07:02:36;;;;;;;3.47;1.00;;;30.20;36.10;;;;;;5033861;22;20069;-79
2022/05/22 07:05:03;;;;;;;1.77;1.30;;;30.30;36.00;;;;;;5023478;28;20037;-77
2022/05/22 07:07:29;;;;;;;0.90;0.90;;;29.30;36.20;;;;;;5042657;28;20040;-78
2022/05/22 07:09:55;;;;;;;2.17;1.20;;;26.80;38.50;;;;;;5042891;28;20088;-78
2022/05/22 07:12:22;;;;;;;1.25;0.95;;;24.40;41.70;;;;;;5033701;28;20033;-78
2022/05/22 07:14:52;;;;;;;1.90;1.13;;;22.60;45.20;;;;;;5061107;28;20039;-78
2022/05/22 07:17:21;;;;;;;3.25;0.90;;;21.40;48.20;;;;;;5061680;28;20024;-78
2022/05/22 07:19:47;;;;;;;2.47;1.10;;;20.60;50.40;;;;;;5061999;28;20017;-78
2022/05/22 07:22:13;;;;;;;1.30;1.00;;;19.90;52.20;;;;;;5043817;28;20085;-78
2022/05/22 07:24:39;;;;;;;2.33;1.15;;;19.50;53.00;;;;;;5060080;28;20021;-77
2022/05/22 07:27:05;;;;;;;3.50;0.70;;;19.30;54.10;;;;;;5056669;28;20021;-77
2022/05/22 07:29:31;;;;;;;1.55;0.90;;;19.30;54.40;;;;;;5057857;28;20028;-78
2022/05/22 07:31:57;;;;;;;1.23;0.98;;;19.30;54.40;;;;;;5045011;28;20029;-78
2022/05/22 07:34:24;;;;;;;1.30;0.90;;;19.30;54.70;;;;;;5060689;28;20101;-77
2022/05/22 07:36:58;;;;;;;0.90;0.70;;;19.40;54.80;;;;;;5059302;28;20029;-78
2022/05/22 07:39:24;;;;;;;0.90;0.90;;;19.50;54.60;;;;;;5046148;28;20078;-79
2022/05/22 07:41:50;;;;;;;2.55;0.90;;;19.60;54.20;;;;;;5061287;28;20091;-79
2022/05/22 07:44:16;;;;;;;1.65;1.10;;;19.60;54.00;;;;;;5046600;28;20028;-79
2022/05/22 07:46:42;;;;;;;1.60;1.05;;;19.60;53.70;;;;;;5062602;28;20431;-79
2022/05/22 07:49:08;;;;;;;2.25;1.25;;;19.70;53.60;;;;;;5064703;28;20419;-79
2022/05/22 07:51:34;;;;;;;1.98;1.00;;;19.70;53.60;;;;;;5064581;28;20021;-79
2022/05/22 07:54:00;;;;;;;1.00;0.80;;;19.60;54.10;;;;;;5067045;28;20025;-79
2022/05/22 07:56:26;;;;;;;1.00;0.90;;;19.60;54.30;;;;;;5061374;28;20036;-78
2022/05/22 07:58:51;;;;;;;2.03;1.15;;;19.70;54.40;;;;;;5062696;28;20031;-78
2022/05/22 08:01:18;;;;;;;1.08;0.70;;;19.70;54.10;;;;;;5064860;28;20385;-78
2022/05/22 08:03:45;;;;;;;1.42;0.70;;;19.80;53.90;;;;;;5041993;28;20065;-77
2022/05/22 08:06:11;;;;;;;0.85;0.70;;;19.80;53.70;;;;;;5043579;28;20033;-78
2022/05/22 08:08:37;;;;;;;1.75;0.93;;;19.90;53.50;;;;;;5067144;28;20075;-79
2022/05/22 08:11:03;;;;;;;5.03;1.00;;;19.90;53.20;;;;;;5064459;28;20021;-79
2022/05/22 08:13:29;;;;;;;2.72;0.98;;;19.90;53.90;;;;;;5063243;28;20040;-79
2022/05/22 08:15:55;;;;;;;3.00;0.80;;;19.90;54.00;;;;;;5064244;28;20049;-78
2022/05/22 08:18:21;;;;;;;4.93;1.08;;;20.10;53.70;;;;;;5046670;28;20021;-79
2022/05/22 08:20:49;;;;;;;1.88;0.90;;;20.10;53.20;;;;;;5064274;28;20032;-79
2022/05/22 08:23:19;;;;;;;4.15;1.05;;;20.00;53.30;;;;;;5064183;28;20044;-78
2022/05/22 08:25:46;;;;;;;2.05;0.82;;;19.90;53.40;;;;;;5065457;28;20021;-80
2022/05/22 08:28:12;;;;;;;1.75;0.80;;;20.10;53.60;;;;;;5064843;28;20055;-78
2022/05/22 08:30:39;;;;;;;1.05;0.80;;;20.30;53.20;;;;;;5047105;28;20481;-78
2022/05/22 08:33:05;;;;;;;4.35;1.10;;;20.40;53.10;;;;;;5064973;28;20027;-80
2022/05/22 08:35:34;;;;;;;1.92;1.15;;;20.60;53.10;;;;;;5065310;28;20176;-79
2022/05/22 08:38:00;;;;;;;1.40;0.90;;;20.80;52.50;;;;;;5045678;28;20024;-79
2022/05/22 08:40:35;;;;;;;0.98;0.77;;;21.00;51.80;;;;;;5045642;28;20037;-79
2022/05/22 08:43:11;;;;;;;0.77;0.77;;;21.20;50.90;;;;;;5062803;28;20013;-79
2022/05/22 08:45:47;;;;;;;2.70;0.93;;;21.50;50.50;;;;;;5043273;28;20036;-79
2022/05/22 08:48:34;;;;;;;2.50;1.10;;;21.60;50.30;;;;;;5046416;28;20024;-80
2022/05/22 08:51:00;;;;;;;1.95;0.80;;;21.60;50.30;;;;;;5064763;28;20383;-82
2022/05/22 08:53:38;;;;;;;2.60;0.88;;;21.30;50.50;;;;;;5066728;28;20029;-79
2022/05/22 08:59:08;;;;;;;1.65;0.85;;;21.30;51.60;;;;;;5065836;28;20052;-79
2022/05/22 09:02:06;;;;;;;2.50;1.20;;;21.60;51.30;;;;;;5066591;28;20029;-79
2022/05/22 09:04:43;;;;;;;0.77;0.70;;;21.90;50.10;;;;;;5070353;28;20094;-80
2022/05/22 09:07:21;;;;;;;1.17;0.70;;;22.20;50.40;;;;;;5072073;28;20049;-79
2022/05/22 09:10:10;;;;;;;1.48;1.02;;;22.20;49.70;;;;;;5072875;28;20019;-79
2022/05/22 09:12:56;;;;;;;3.30;1.00;;;22.20;49.50;;;;;;5036449;28;20041;-79
2022/05/22 09:15:34;;;;;;;0.90;0.80;;;22.20;48.90;;;;;;5048591;28;20039;-79
2022/05/22 09:18:15;;;;;;;1.25;0.88;;;22.00;49.80;;;;;;5065930;28;20021;-79
2022/05/22 09:21:05;;;;;;;2.28;1.20;;;22.10;50.20;;;;;;5067239;28;20036;-79
2022/05/22 09:23:46;;;;;;;2.80;1.00;;;22.40;49.60;;;;;;5047322;28;20068;-79
2022/05/22 09:26:21;;;;;;;2.85;0.88;;;22.70;49.10;;;;;;5060888;28;20021;-78
2022/05/22 09:28:58;;;;;;;1.42;0.85;;;22.80;47.80;;;;;;5064935;28;20023;-79
2022/05/22 09:32:09;;;;;;;2.03;1.10;;;22.80;48.30;;;;;;5065221;28;20082;-79
2022/05/22 09:34:56;;;;;;;2.40;0.98;;;22.90;48.30;;;;;;4993519;28;20045;-78
2022/05/22 09:37:34;;;;;;;3.47;0.68;;;23.20;48.00;;;;;;5050594;28;20025;-78
2022/05/22 09:40:06;;;;;;;3.42;1.17;;;23.50;47.50;;;;;;5064806;28;20067;-80
2022/05/22 09:42:54;;;;;;;4.10;1.17;;;23.60;46.70;;;;;;5047535;28;20029;-81
2022/05/22 09:45:37;;;;;;;2.65;1.17;;;23.60;47.00;;;;;;5055894;28;20086;-80
2022/05/22 09:48:19;;;;;;;3.25;0.98;;;23.30;46.70;;;;;;5064911;28;20103;-79
2022/05/22 09:50:57;;;;;;;4.63;1.02;;;23.20;47.50;;;;;;5063177;28;20056;-78
2022/05/22 09:53:48;;;;;;;0.93;0.80;;;23.20;46.80;;;;;;5063994;28;20108;-79
2022/05/22 09:56:45;;;;;;;2.92;1.00;;;23.30;47.40;;;;;;5063300;28;20047;-79
2022/05/22 09:59:55;;;;;;;1.48;0.95;;;23.70;46.60;;;;;;5050663;28;20144;-79
2022/05/22 10:02:33;;;;;;;4.20;1.55;;;23.60;45.50;;;;;;4997810;28;20038;-79
2022/05/22 10:05:11;;;;;;;1.92;1.00;;;23.50;46.00;;;;;;5058141;28;20105;-78
2022/05/22 10:08:04;;;;;;;1.38;0.77;;;23.30;46.10;;;;;;5064516;28;20051;-79
2022/05/22 10:10:44;;;;;;;1.00;0.57;;;23.20;46.20;;;;;;5053689;28;20013;-79
2022/05/22 10:13:28;;;;;;;2.15;1.05;;;23.50;46.40;;;;;;5042044;28;20081;-79
2022/05/22 10:16:15;;;;;;;2.15;1.23;;;24.10;45.10;;;;;;5063972;28;20021;-80
2022/05/22 10:18:53;;;;;;;1.90;1.00;;;24.20;44.30;;;;;;5062594;28;20025;-79
2022/05/22 10:21:27;;;;;;;1.15;0.90;;;24.10;44.80;;;;;;5061452;28;20132;-79
2022/05/22 10:24:02;;;;;;;4.28;1.23;;;24.40;44.90;;;;;;5062254;28;20020;-80
2022/05/22 10:27:13;;;;;;;1.50;0.88;;;24.40;44.60;;;;;;5061426;28;20165;-80
2022/05/22 10:30:06;;;;;;;1.85;0.90;;;24.40;45.00;;;;;;5059351;28;20519;-79
2022/05/22 10:32:40;;;;;;;2.40;1.00;;;24.60;44.70;;;;;;5063255;28;20074;-80
2022/05/22 10:35:27;;;;;;;3.53;1.10;;;24.90;43.80;;;;;;5047323;28;20017;-80
2022/05/22 10:38:10;;;;;;;2.60;1.10;;;25.20;43.20;;;;;;5047897;28;20088;-80
2022/05/22 10:43:33;;;;;;;4.45;1.38;;;25.10;42.70;;;;;;5063129;28;20032;-79
2022/05/22 10:45:59;;;;;;;2.28;1.20;;;25.20;42.40;;;;;;5041319;28;20036;-79
2022/05/22 10:48:26;;;;;;;5.38;1.48;;;25.20;42.00;;;;;;5024838;28;20473;-80
2022/05/22 10:51:08;;;;;;;2.88;1.35;;;25.00;42.70;;;;;;5042354;28;20094;-79
2022/05/22 10:53:40;;;;;;;0.82;0.77;;;25.00;42.70;;;;;;5047896;28;20100;-78
2022/05/22 10:56:18;;;;;;;3.15;1.10;;;25.10;42.80;;;;;;5045204;28;20136;-78
2022/05/22 10:58:59;;;;;;;2.00;1.25;;;25.30;41.90;;;;;;5062833;28;20021;-79
2022/05/22 11:01:34;;;;;;;2.30;1.00;;;25.10;42.20;;;;;;5044769;28;20040;-79
2022/05/22 11:04:10;;;;;;;2.13;0.98;;;24.90;42.70;;;;;;5062301;28;20029;-79
2022/05/22 11:06:38;;;;;;;3.70;1.20;;;24.90;42.60;;;;;;5065805;28;20017;-79
2022/05/22 11:09:06;;;;;;;2.25;1.00;;;24.90;41.90;;;;;;5070114;28;20021;-78
2022/05/22 11:11:35;;;;;;;2.90;1.10;;;25.00;42.00;;;;;;5070204;28;20165;-78
2022/05/22 11:14:12;;;;;;;1.70;0.85;;;25.00;42.80;;;;;;5049699;28;20025;-79
2022/05/22 11:16:40;;;;;;;1.75;1.15;;;24.90;43.40;;;;;;5067455;28;20066;-79
2022/05/22 11:19:15;;;;;;;1.85;1.10;;;25.00;42.90;;;;;;5068640;28;20025;-79
2022/05/22 11:21:50;;;;;;;2.03;1.10;;;25.00;42.00;;;;;;5048659;28;20272;-80
2022/05/22 11:24:41;;;;;;;1.88;1.00;;;25.20;42.20;;;;;;5066269;28;20107;-79
2022/05/22 11:27:32;;;;;;;1.35;1.15;;;25.50;42.00;;;;;;5056655;28;20097;-78
2022/05/22 11:30:10;;;;;;;3.90;1.05;;;25.40;41.60;;;;;;5070502;28;20020;-79
2022/05/22 11:32:42;;;;;;;1.65;1.05;;;25.10;42.30;;;;;;5058163;28;20037;-80
2022/05/22 11:35:31;;;;;;;1.80;1.23;;;25.20;42.10;;;;;;5070460;28;20016;-80
2022/05/22 11:38:30;;;;;;;4.20;1.10;;;25.00;40.00;;;;;;5047158;28;20033;-79
2022/05/22 11:41:29;;;;;;;2.55;1.20;;;25.10;40.10;;;;;;5064952;28;20052;-80
2022/05/22 11:44:06;;;;;;;2.58;1.25;;;25.10;41.30;;;;;;5047739;28;20032;-80
2022/05/22 11:47:09;;;;;;;2.03;1.10;;;25.20;42.00;;;;;;5065714;28;20442;-80
2022/05/22 11:49:52;;;;;;;2.88;1.10;;;25.40;41.70;;;;;;5066821;28;20029;-78
2022/05/22 11:55:29;;;;;;;1.00;0.90;;;25.70;41.60;;;;;;5064308;28;20036;-79
2022/05/22 11:58:12;;;;;;;1.63;1.00;;;26.40;39.10;;;;;;5064298;28;20078;-79
2022/05/22 12:00:56;;;;;;;1.13;0.98;;;26.60;38.00;;;;;;5065466;28;20021;-79
2022/05/22 12:03:49;;;;;;;4.22;1.20;;;26.90;37.90;;;;;;5065110;28;20033;-78
2022/05/22 12:06:38;;;;;;;1.30;1.00;;;27.00;37.10;;;;;;5064837;28;20062;-80
2022/05/22 12:09:10;;;;;;;1.25;0.98;;;26.90;38.20;;;;;;5064575;28;20095;-78
2022/05/22 12:12:11;;;;;;;1.02;0.90;;;26.70;36.80;;;;;;5064480;28;20044;-80
2022/05/22 12:15:03;;;;;;;2.80;0.85;;;26.50;37.40;;;;;;5063184;28;20078;-79
2022/05/22 12:17:39;;;;;;;2.10;1.13;;;26.40;37.30;;;;;;5041945;28;20351;-77
2022/05/22 12:20:41;;;;;;;1.23;0.85;;;26.40;37.10;;;;;;5061538;28;20477;-78
2022/05/22 12:23:15;;;;;;;1.00;0.77;;;26.30;37.50;;;;;;5057674;28;20044;-78
2022/05/22 12:25:49;;;;;;;7.28;1.48;;;26.40;37.30;;;;;;5066343;28;20025;-78
2022/05/22 12:28:37;;;;;;;1.35;0.88;;;26.40;37.40;;;;;;5068395;28;20046;-79
2022/05/22 12:31:08;;;;;;;1.45;1.10;;;26.70;37.30;;;;;;5050472;28;20039;-79
2022/05/22 12:33:36;;;;;;;3.22;1.25;;;27.10;36.80;;;;;;5048583;28;20025;-79
2022/05/22 12:36:04;;;;;;;1.42;0.75;;;27.10;36.50;;;;;;5066667;28;20453;-79
2022/05/22 12:38:30;;;;;;;1.23;0.70;;;27.10;35.90;;;;;;5048863;28;20021;-79
2022/05/22 12:41:18;;;;;;;0.60;0.60;;;27.00;36.70;;;;;;5065724;28;20048;-79
2022/05/22 12:43:44;;;;;;;1.08;0.82;;;27.10;35.70;;;;;;5065772;28;20029;-78
2022/05/22 12:46:11;;;;;;;2.28;0.82;;;26.90;35.70;;;;;;5065036;28;20032;-78
2022/05/22 12:48:43;;;;;;;1.05;0.88;;;26.60;35.70;;;;;;5065066;28;20048;-78
2022/05/22 12:51:31;;;;;;;1.80;0.70;;;26.40;36.10;;;;;;5066758;28;20025;-78
2022/05/22 12:54:11;;;;;;;3.92;1.00;;;26.70;36.60;;;;;;5066653;28;20037;-79
2022/05/22 12:56:40;;;;;;;2.40;0.80;;;26.70;35.90;;;;;;5067449;28;20021;-79
2022/05/22 12:59:21;;;;;;;4.47;1.27;;;26.60;35.60;;;;;;5068097;28;20005;-78
2022/05/22 13:01:52;;;;;;;5.03;1.00;;;26.60;35.80;;;;;;5066832;28;20032;-79
2022/05/22 13:04:30;;;;;;;2.88;0.80;;;26.60;35.50;;;;;;5066650;28;20083;-79
2022/05/22 13:07:01;;;;;;;2.65;1.00;;;26.60;35.20;;;;;;5065930;28;20488;-80
2022/05/22 13:12:15;;;;;;;1.13;0.90;;;26.80;35.60;;;;;;5033150;28;20037;-81
2022/05/22 13:14:47;;;;;;;3.30;2.00;;;27.10;34.60;;;;;;5043239;28;20046;-81
2022/05/22 13:17:15;;;;;;;5.70;1.20;;;27.20;35.10;;;;;;5046538;28;20033;-81
2022/05/22 13:19:53;;;;;;;2.15;0.98;;;27.40;34.60;;;;;;5039235;28;20432;-80
2022/05/22 13:22:38;;;;;;;1.02;0.80;;;27.50;34.10;;;;;;4995060;28;20030;-81
2022/05/22 13:25:24;;;;;;;0.70;0.70;;;27.50;34.50;;;;;;4992372;28;20033;-82
2022/05/22 13:27:49;;;;;;;0.93;0.60;;;27.60;34.10;;;;;;5015241;28;20034;-81
2022/05/22 13:30:25;;;;;;;1.77;0.90;;;27.90;34.20;;;;;;4996401;28;20033;-80
2022/05/22 13:32:51;;;;;;;2.85;1.08;;;28.20;33.90;;;;;;5003040;28;20030;-81